Latest Weather Observations for Proserpine

IDQ60801

Issued at 4:32 pm EST Thursday 21 September 2017 (issued every 30 minutes, with the page automatically refreshed every 10 minutes)

About weather observations | Map of weather stations | Latest weather observations for QLD | Other Formats
Station Details ID: 033247 Name: PROSERPINE AIRPORT Lat: -20.49 Lon: 148.56 Height: 19.7 m
Data from the previous 72 hours. | See also: Recent months at Proserpine
Date/Time
EST
Temp
°C
App
Temp
°C
Dew
Point
°C
Rel
Hum
%
Delta-T
°C
Wind Press
QNH
hPa
Press
MSL
hPa
Rain since
9am
mm
Dir  Spd
km/h
Gust
km/h
Spd
kts
Gust
kts
21/04:30pm 25.8 24.5 19.0 66 4.4 ESE 24 32 13 17 1014.5 1014.5 0.0
21/04:00pm 26.3 25.3 18.9 63 4.7 ESE 22 32 12 17 1014.2 1014.2 0.0
21/03:30pm 28.0 27.5 19.2 58 5.7 ESE 20 30 11 16 1014.3 1014.3 0.0
21/03:00pm 27.8 26.3 18.5 57 5.9 ESE 24 32 13 17 1014.3 1014.3 0.0
21/02:30pm 28.7 27.4 18.2 53 6.7 ESE 22 30 12 16 1014.5 1014.5 0.0
21/02:00pm 28.8 26.8 19.1 55 6.3 SE 28 37 15 20 1014.8 1014.8 0.0
21/01:30pm 28.1 25.9 18.8 57 6.0 ESE 28 39 15 21 1015.2 1015.2 0.0
21/01:00pm 28.0 25.3 18.4 56 6.1 SE 30 41 16 22 1015.5 1015.5 0.0
21/12:30pm 29.6 28.8 18.4 51 7.2 ESE 20 28 11 15 1015.7 1015.7 0.0
21/12:00pm 30.8 30.6 16.8 43 8.8 ESE 13 30 7 16 1015.8 1015.8 0.0
21/11:30am 29.1 27.8 14.9 42 8.6 ENE 15 24 8 13 1016.3 1016.3 0.0
21/11:00am 28.4 29.4 16.3 47 7.5 N 6 13 3 7 1016.8 1016.8 0.0
21/10:30am 27.0 26.9 16.0 51 6.8 NE 11 19 6 10 1017.4 1017.4 0.0
21/10:00am 26.9 26.5 17.1 55 6.1 N 15 20 8 11 1017.3 1017.3 0.0
21/09:30am 24.9 25.8 17.6 64 4.6 NNE 9 15 5 8 1017.9 1017.8 0.0
21/09:00am 23.7 25.1 17.7 69 3.7 NW 7 11 4 6 1018.1 1018.0 0.0
21/08:30am 22.3 24.4 18.1 77 2.6 SW 4 7 2 4 1018.2 1018.1 0.0
21/08:00am 18.9 20.9 17.0 89 1.1 NNW 2 6 1 3 1018.3 1018.2 0.0
21/07:30am 16.4 18.4 15.9 97 0.3 CALM 0 0 0 0 1018.1 1018.0 0.0
21/07:00am 15.1 16.3 14.9 99 0.1 WSW 2 6 1 3 1017.5 1017.5 0.0
21/06:53am 14.4 15.7 14.2 99 0.1 CALM 0 2 0 1 1017.4 1017.4 0.0
21/06:41am 13.2 14.1 13.0 99 0.1 CALM 0 2 0 1 1017.2 1017.2 0.0
21/06:30am 12.6 13.4 12.4 99 0.1 CALM 0 6 0 3 1017.1 1017.1 0.0
21/06:00am 12.0 12.5 11.7 98 0.2 CALM 0 0 0 0 1016.7 1016.7 0.0
21/05:30am 12.3 12.9 12.0 98 0.2 CALM 0 0 0 0 1016.4 1016.4 0.0
21/05:16am 12.2 12.8 11.9 98 0.2 CALM 0 0 0 0 1016.3 1016.3 0.0
21/05:00am 12.5 13.1 11.9 96 0.3 CALM 0 0 0 0 1016.2 1016.2 0.0
21/04:56am 12.3 12.8 11.7 96 0.3 CALM 0 0 0 0 1016.1 1016.1 0.0
21/04:32am 13.0 13.7 12.2 95 0.4 CALM 0 0 0 0 1015.9 1015.9 0.0
21/04:30am 13.1 13.9 12.5 96 0.3 CALM 0 0 0 0 1016.0 1016.0 0.0
21/04:05am 13.4 14.2 12.5 94 0.5 CALM 0 0 0 0 1015.9 1015.9 0.0
21/04:00am 13.5 14.3 12.6 94 0.5 CALM 0 0 0 0 1015.8 1015.8 0.0
21/03:59am 13.5 14.3 12.6 94 0.5 CALM 0 0 0 0 1015.8 1015.8 0.0
21/03:39am 14.7 14.9 14.2 97 0.3 SSW 6 6 3 3 1015.7 1015.7 0.0
21/03:32am 14.5 14.6 13.9 96 0.3 SSW 6 6 3 3 1015.7 1015.7 0.0
21/03:30am 14.5 14.6 13.9 96 0.3 SW 6 6 3 3 1015.7 1015.7 0.0
21/03:11am 14.4 15.2 13.8 96 0.3 W 2 6 1 3 1015.8 1015.8 0.0
21/03:00am 14.0 14.6 13.1 94 0.5 W 2 6 1 3 1015.8 1015.8 0.0
21/02:30am 14.9 14.9 14.3 96 0.3 SW 7 9 4 5 1016.0 1016.0 0.0
21/02:00am 14.7 15.2 13.9 95 0.4 SW 4 7 2 4 1016.3 1016.3 0.0
21/01:30am 14.4 14.3 13.3 93 0.6 SW 6 7 3 4 1016.6 1016.6 0.0
21/01:00am 15.9 16.5 15.3 96 0.3 SW 6 7 3 4 1016.7 1016.7 0.0
21/12:37am 15.5 16.3 14.7 95 0.5 SW 4 7 2 4 1016.8 1016.8 0.0
21/12:30am 15.8 16.4 15.2 96 0.3 SW 6 7 3 4 1016.8 1016.8 0.0
21/12:16am 15.7 16.1 14.7 94 0.6 SSW 6 6 3 3 1016.9 1016.9 0.0
21/12:00am 16.8 17.5 16.2 96 0.4 SSW 7 7 4 4 1017.0 1017.0 0.0
 
Date/Time
EST
Temp
°C
App
Temp
°C
Dew
Point
°C
Rel
Hum
%
Delta-T
°C
Wind Press
QNH
hPa
Press
MSL
hPa
Rain since
9am
mm
Dir  Spd
km/h
Gust
km/h
Spd
kts
Gust
kts
20/11:30pm 16.9 17.7 16.3 96 0.4 SSW 7 9 4 5 1017.1 1017.1 0.0
20/11:00pm 17.2 17.3 16.4 95 0.5 SSW 11 11 6 6 1017.1 1017.1 0.0
20/10:30pm 17.8 18.8 16.8 94 0.6 SSW 7 9 4 5 1017.1 1017.1 0.0
20/10:01pm 18.2 19.3 17.2 94 0.6 SSW 7 9 4 5 1017.0 1017.0 0.0
20/10:00pm 18.2 19.3 17.2 94 0.6 SSW 7 9 4 5 1017.0 1017.0 0.0
20/09:48pm 18.2 19.3 17.2 94 0.6 SSW 7 9 4 5 1017.0 1017.0 0.0
20/09:30pm 18.0 18.6 16.9 93 0.7 SSW 9 11 5 6 1017.0 1017.0 0.0
20/09:12pm 18.3 19.6 17.0 92 0.8 S 6 7 3 4 1017.1 1017.1 0.0
20/09:00pm 18.3 19.4 16.5 89 1.1 S 6 9 3 5 1017.0 1017.0 0.0
20/08:53pm 19.1 20.5 17.8 92 0.8 S 7 9 4 5 1017.0 1017.0 0.0
20/08:40pm 18.9 21.4 17.2 90 1.0 CALM 0 4 0 2 1017.1 1017.1 0.0
20/08:30pm 19.2 20.9 17.2 88 1.2 ESE 4 7 2 4 1017.1 1017.1 0.0
20/08:26pm 19.7 21.3 17.8 89 1.2 ESE 6 7 3 4 1017.0 1017.0 0.0
20/08:22pm 19.8 21.4 17.9 89 1.2 ESE 6 7 3 4 1017.0 1017.0 0.0
20/08:11pm 20.1 21.7 18.2 89 1.2 ESE 7 9 4 5 1016.9 1016.9 0.0
20/08:00pm 20.2 21.8 18.3 89 1.2 SE 7 9 4 5 1016.8 1016.8 0.0
20/07:30pm 20.6 22.3 18.4 87 1.4 SE 7 9 4 5 1016.6 1016.6 0.0
20/07:00pm 21.2 21.7 18.4 84 1.7 SE 13 15 7 8 1016.3 1016.3 0.0
20/06:30pm 21.8 22.4 18.6 82 2.0 SE 13 17 7 9 1015.9 1015.9 0.0
20/06:00pm 22.7 23.4 18.0 75 2.9 SE 11 15 6 8 1015.6 1015.6 0.0
20/05:30pm 24.0 23.6 18.0 69 3.8 SE 17 20 9 11 1015.0 1015.0 0.0
20/05:00pm 25.2 23.8 17.1 60 5.0 SE 20 26 11 14 1014.6 1014.6 0.0
20/04:30pm 26.9 24.7 14.3 46 7.5 ESE 19 24 10 13 1014.3 1014.3 0.0
20/04:00pm 27.9 25.1 13.1 40 8.7 ESE 20 30 11 16 1014.1 1014.1 0.0
20/03:30pm 28.2 26.1 14.8 44 8.1 ESE 19 28 10 15 1014.1 1014.1 0.0
20/03:00pm 29.5 26.8 14.5 40 9.1 ESE 22 30 12 16 1014.1 1014.1 0.0
20/02:30pm 30.2 27.5 13.5 36 10.0 ESE 20 32 11 17 1014.1 1014.1 0.0
20/02:00pm 30.3 27.3 12.7 34 10.4 E 20 30 11 16 1014.3 1014.3 0.0
20/01:30pm 29.7 26.4 11.7 33 10.4 ESE 20 32 11 17 1014.7 1014.7 0.0
20/01:00pm 30.0 27.4 13.3 36 9.9 E 19 28 10 15 1014.9 1014.9 0.0
20/12:30pm 28.9 26.5 14.3 40 8.8 ESE 20 32 11 17 1015.4 1015.4 0.0
20/12:00pm 30.1 29.1 14.6 39 9.4 ESE 13 20 7 11 1015.7 1015.7 0.0
20/11:30am 29.6 29.1 13.8 38 9.5 ENE 9 17 5 9 1016.2 1016.2 0.0
20/11:00am 28.9 27.6 13.6 39 9.1 SSE 13 24 7 13 1016.8 1016.8 0.0
20/10:30am 28.5 27.5 14.7 43 8.4 SE 13 24 7 13 1017.4 1017.4 0.0
20/10:00am 26.8 27.4 15.2 49 7.0 WNW 6 11 3 6 1018.2 1018.1 0.0
20/09:30am 26.1 26.8 16.1 54 6.1 SE 7 13 4 7 1018.4 1018.3 0.0
20/09:00am 25.0 26.1 16.7 60 5.1 NNW 6 9 3 5 1018.9 1018.8 0.0
20/08:30am 23.9 25.6 17.2 66 4.1 S 4 9 2 5 1019.1 1019.0 0.0
20/08:00am 21.7 22.9 16.9 74 2.9 SW 6 9 3 5 1019.0 1018.9 0.0
20/07:30am 18.1 20.2 16.3 89 1.1 CALM 0 0 0 0 1018.8 1018.7 0.0
20/07:00am 17.7 19.8 16.2 91 0.9 CALM 0 0 0 0 1018.3 1018.2 0.0
20/06:30am 17.1 19.0 15.8 92 0.8 CALM 0 0 0 0 1017.9 1017.8 0.0
20/06:00am 17.1 17.9 15.8 92 0.8 SW 6 7 3 4 1017.8 1017.7 0.0
20/05:30am 17.4 19.3 15.7 90 1.0 CALM 0 2 0 1 1017.6 1017.6 0.0
20/05:00am 17.6 18.2 15.9 90 1.0 SSW 7 9 4 5 1017.0 1017.0 0.0
20/04:30am 17.7 18.9 16.0 90 1.0 S 4 6 2 3 1017.0 1017.0 0.0
20/04:00am 17.9 20.0 16.2 90 1.0 CALM 0 6 0 3 1016.8 1016.8 0.0
20/03:30am 17.9 19.6 16.2 90 1.0 WSW 2 7 1 4 1017.0 1017.0 0.0
20/03:00am 18.0 19.4 16.5 91 0.9 W 4 9 2 5 1017.1 1017.1 0.0
20/02:30am 18.2 19.3 16.5 90 1.0 SSE 6 9 3 5 1017.2 1017.2 0.0
20/02:04am 18.3 19.3 16.3 88 1.2 ENE 6 9 3 5 1017.4 1017.4 0.0
20/02:00am 18.4 20.2 16.4 88 1.2 NE 2 9 1 5 1017.1 1017.1 0.0
20/01:38am 18.4 19.5 16.6 89 1.1 NW 6 7 3 4 1018.0 1017.9 0.0
20/01:30am 18.3 19.3 16.3 88 1.2 WNW 6 7 3 4 1017.9 1017.8 0.0
20/01:00am 18.9 19.9 16.3 85 1.6 ESE 6 9 3 5 1017.2 1017.2 0.0
20/12:30am 18.7 19.1 16.3 86 1.4 WNW 9 13 5 7 1018.6 1018.5 0.0
20/12:00am 19.4 21.2 16.4 83 1.8 SW 2 6 1 3 1018.5 1018.4 0.0
 
Date/Time
EST
Temp
°C
App
Temp
°C
Dew
Point
°C
Rel
Hum
%
Delta-T
°C
Wind Press
QNH
hPa
Press
MSL
hPa
Rain since
9am
mm
Dir  Spd
km/h
Gust
km/h
Spd
kts
Gust
kts
19/11:30pm 19.5 20.0 16.5 83 1.8 SW 9 11 5 6 1019.1 1019.0 0.0
19/11:00pm 19.8 19.9 16.6 82 1.9 S 11 13 6 7 1018.6 1018.5 0.0
19/10:30pm 20.0 20.6 16.8 82 1.9 S 9 13 5 7 1019.8 1019.7 0.0
19/10:00pm 20.2 20.8 16.8 81 2.1 SSE 9 11 5 6 1019.6 1019.5 0.0
19/09:30pm 20.3 20.9 16.9 81 2.1 S 9 11 5 6 1019.8 1019.7 0.0
19/09:00pm 19.9 21.0 17.1 84 1.7 S 7 17 4 9 1020.1 1020.0 0.0
19/08:30pm 20.3 21.1 17.3 83 1.8 SSE 9 11 5 6 1019.4 1019.3 0.0
19/08:00pm 20.4 22.8 17.0 81 2.1 CALM 0 7 0 4 1019.7 1019.6 0.0
19/07:43pm 20.7 23.2 17.3 81 2.1 CALM 0 0 0 0 1019.8 1019.7 0.0
19/07:30pm 20.9 23.4 17.3 80 2.2 CALM 0 0 0 0 1019.7 1019.6 0.0
19/07:17pm 21.0 23.5 17.2 79 2.3 CALM 0 0 0 0 1019.8 1019.7 0.0
19/07:00pm 21.1 23.2 17.3 79 2.3 SE 2 6 1 3 1020.0 1019.9 0.0
19/06:30pm 21.3 22.1 17.3 78 2.5 S 9 11 5 6 1019.3 1019.2 0.0
19/06:00pm 21.6 22.2 17.6 78 2.5 SE 11 17 6 9 1018.4 1018.3 0.0
19/05:30pm 21.9 21.7 17.5 76 2.7 SE 15 19 8 10 1018.0 1017.9 0.0
19/05:00pm 22.3 22.0 17.4 74 3.0 SE 15 24 8 13 1018.7 1018.6 0.0
19/04:30pm 22.3 22.1 17.7 75 2.9 ESE 15 20 8 11 1017.5 1017.5 0.0
19/04:00pm 22.4 22.2 17.5 74 3.0 ESE 15 20 8 11 1018.1 1018.0 0.0
19/03:30pm 22.3 22.0 17.4 74 3.0 ESE 15 22 8 12 1018.3 1018.2 0.0
19/03:00pm 22.9 21.9 16.7 68 3.8 ESE 17 22 9 12 1018.0 1017.9 0.0
19/02:30pm 24.0 23.1 16.8 64 4.4 ESE 17 24 9 13 1018.8 1018.7 0.0
19/02:00pm 23.8 22.7 16.3 63 4.6 E 17 26 9 14 1019.0 1018.9 0.0
19/01:30pm 24.0 22.3 16.3 62 4.7 E 20 28 11 15 1019.1 1019.0 0.0
19/01:00pm 24.1 22.5 16.1 61 4.9 ESE 19 24 10 13 1019.6 1019.5 0.0
19/12:30pm 24.2 22.7 16.2 61 4.9 ESE 19 24 10 13 1020.1 1020.0 0.0
19/12:00pm 24.3 22.4 15.8 59 5.1 ESE 20 30 11 16 1019.7 1019.6 0.0
19/11:30am 24.6 22.2 15.5 57 5.5 ESE 22 32 12 17 1020.5 1020.4 0.0
19/11:00am 24.8 22.1 14.6 53 6.1 ESE 22 33 12 18 1021.3 1021.2 0.0
19/10:30am 25.1 23.5 16.5 59 5.3 SE 20 30 11 16 1022.0 1021.9 0.0
19/10:00am 23.6 21.3 15.6 61 4.8 SE 22 30 12 16 1021.7 1021.6 0.0
19/09:30am 23.9 21.8 16.2 62 4.7 SE 22 28 12 15 1022.1 1022.0 0.0
19/09:00am 23.6 21.8 15.9 62 4.6 SE 20 30 11 16 1022.1 1022.0 0.0
19/08:30am 22.9 21.8 16.4 67 4.0 S 17 22 9 12 1022.1 1022.0 0.0
19/08:00am 21.9 21.1 16.2 70 3.4 S 15 20 8 11 1021.9 1021.8 0.0
19/07:30am 21.3 19.9 15.6 70 3.4 S 17 26 9 14 1021.7 1021.6 0.0
19/07:00am 20.0 20.4 16.2 79 2.3 SSW 9 11 5 6 1021.2 1021.1 0.0
19/06:30am 17.6 17.8 15.8 89 1.1 SSW 9 11 5 6 1020.9 1020.8 0.0
19/06:00am 16.5 16.3 14.7 89 1.0 S 9 11 5 6 1020.5 1020.4 0.0
19/05:30am 16.4 15.9 14.8 90 0.9 SSW 11 13 6 7 1020.2 1020.1 0.0
19/05:00am 16.4 15.9 14.8 90 0.9 SW 11 11 6 6 1020.2 1020.1 0.0
19/04:30am 16.7 16.5 14.7 88 1.2 SSW 9 11 5 6 1020.0 1019.9 0.0
19/04:00am 16.8 16.6 14.6 87 1.3 SW 9 11 5 6 1019.8 1019.7 0.0
19/03:30am 17.7 17.3 15.1 85 1.5 SSW 11 13 6 7 1019.7 1019.6 0.0
19/03:00am 17.4 16.9 15.0 86 1.4 SSW 11 13 6 7 1020.0 1019.9 0.0
19/02:30am 17.8 17.4 15.1 84 1.6 SSW 11 13 6 7 1020.1 1020.0 0.0
19/02:00am 18.2 18.1 14.9 81 1.9 SSW 9 11 5 6 1020.5 1020.4 0.0
19/01:30am 19.0 18.6 15.3 79 2.2 SSW 11 13 6 7 1020.8 1020.7 0.0
19/01:00am 18.9 18.6 15.4 80 2.1 SSW 11 13 6 7 1021.1 1021.0 0.0
19/12:30am 19.2 18.9 15.5 79 2.2 S 11 15 6 8 1021.2 1021.1 0.0
19/12:00am 19.1 18.8 15.4 79 2.2 SSW 11 13 6 7 1021.7 1021.6 0.0
 
Date/Time
EST
Temp
°C
App
Temp
°C
Dew
Point
°C
Rel
Hum
%
Delta-T
°C
Wind Press
QNH
hPa
Press
MSL
hPa
Rain since
9am
mm
Dir  Spd
km/h
Gust
km/h
Spd
kts
Gust
kts
18/11:30pm 19.3 18.7 15.6 79 2.2 SSW 13 17 7 9 1022.0 1021.9 0.0
18/11:00pm 19.6 19.3 15.5 77 2.4 SSW 11 15 6 8 1022.2 1022.1 0.0
18/10:30pm 20.1 19.1 15.7 76 2.6 S 15 22 8 12 1022.1 1022.0 0.0
18/10:03pm 20.4 19.1 15.8 75 2.7 SSE 17 22 9 12 1022.1 1022.0 0.0
18/10:00pm 20.6 19.4 16.0 75 2.7 SSE 17 20 9 11 1022.1 1022.0 0.0
18/09:53pm 20.6 19.8 16.0 75 2.8 SSE 15 19 8 10 1022.1 1022.0 0.0
18/09:30pm 20.7 20.3 16.1 75 2.8 S 13 19 7 10 1022.2 1022.1 0.0
18/09:26pm 20.8 20.4 16.2 75 2.8 S 13 17 7 9 1022.3 1022.2 0.0
18/09:07pm 21.3 19.7 16.0 72 3.2 SSE 19 28 10 15 1022.2 1022.1 0.0
18/09:02pm 22.2 20.4 16.9 72 3.2 SE 22 30 12 16 1022.1 1022.0 0.0
18/09:00pm 22.2 20.4 16.9 72 3.2 SE 22 30 12 16 1022.1 1022.0 0.0
18/08:30pm 21.8 21.3 17.0 74 2.9 SE 15 20 8 11 1022.0 1021.9 0.0
18/08:09pm 21.3 20.8 16.9 76 2.7 SE 15 19 8 10 1021.8 1021.7 0.0
18/08:00pm 21.3 20.4 16.9 76 2.7 SE 17 20 9 11 1021.7 1021.6 0.0
18/07:57pm 21.3 20.5 17.1 77 2.6 SE 17 20 9 11 1021.7 1021.6 0.0
18/07:30pm 21.2 20.7 16.8 76 2.7 SE 15 20 8 11 1021.5 1021.4 0.0
18/07:29pm 21.2 20.7 16.8 76 2.7 SE 15 20 8 11 1021.5 1021.4 0.0
18/07:00pm 21.4 20.5 16.8 75 2.8 ESE 17 24 9 13 1021.3 1021.2 0.0
18/06:30pm 21.6 20.7 16.8 74 2.9 ESE 17 24 9 13 1021.0 1020.9 0.0
18/06:00pm 22.1 20.2 16.8 72 3.2 ESE 22 33 12 18 1020.5 1020.4 0.0
18/05:30pm 22.8 20.6 17.0 70 3.6 ESE 24 35 13 19 1020.3 1020.2 0.0
18/05:00pm 23.5 20.7 17.3 68 3.8 ESE 28 43 15 23 1019.9 1019.8 0.0

Other Formats:

Comma delimited format used in spreadsheet applications
http://www.bom.gov.au/fwo/IDQ60801/IDQ60801.94365.axf

JavaScript Object Notation format (JSON) in row-major order
http://www.bom.gov.au/fwo/IDQ60801/IDQ60801.94365.json